VIAR/ATQ METAR and TAF weather

Enter ICAO airport designator
Station Type Date Time Source
VIAR METAR 2020/06/03 22:00 UTC NOAA

VIAR 032200Z VRB02KT 3500 HZ FEW100 24/19 Q1004 NOSIG


Station Type Date Time Source
VIAR Decoded METAR 2020/06/03 22:00 UTC NOAA

Amritsar, India (VIAR) 31-38N 074-52E 234M
Jun 03, 2020 - 06:00 PM EDT / 2020.06.03 2200 UTC
Wind: Variable at 2 MPH (2 KT):0
Visibility: 2 mile(s):0
Sky conditions: mostly clear
Weather: haze
Temperature: 75 F (24 C)
Dew Point: 66 F (19 C)
Relative Humidity: 73%
Pressure (altimeter): 29.65 in. Hg (1004 hPa)
ob: VIAR 032200Z VRB02KT 3500 HZ FEW100 24/19 Q1004 NOSIG
cycle: 22

Station Type Date Time Source
VIAR TAF 2020/06/03 18:21 UTC NOAA

TAF VIAR 031700Z 0318/0424 00000KT 3500 FEW100
BECMG 0400/0402 2500 HZ
BECMG 0406/0408 11005G15KT 4000 HZ FEW040 SCT100
TEMPO 0412/0415 FEW040CB
BECMG 0415/0417 15008KT 3000 HZ SCT040 BKN100

Example: see airport list